sensor_id;sensor_type;location;lat;lon;timestamp;temperature;humidity
563;DHT22;266;49.514;8.294;2023-05-10T00:00:16;14.00;99.90
563;DHT22;266;49.514;8.294;2023-05-10T00:02:44;14.00;99.90
563;DHT22;266;49.514;8.294;2023-05-10T00:05:12;14.00;99.90
563;DHT22;266;49.514;8.294;2023-05-10T00:07:41;14.00;99.90
563;DHT22;266;49.514;8.294;2023-05-10T00:10:11;14.00;99.90
563;DHT22;266;49.514;8.294;2023-05-10T00:12:40;14.00;99.90
563;DHT22;266;49.514;8.294;2023-05-10T00:15:08;13.90;99.90
563;DHT22;266;49.514;8.294;2023-05-10T00:17:38;13.90;99.90
563;DHT22;266;49.514;8.294;2023-05-10T00:20:07;13.90;99.90
563;DHT22;266;49.514;8.294;2023-05-10T00:22:35;13.90;99.90
563;DHT22;266;49.514;8.294;2023-05-10T00:25:04;13.80;99.90
563;DHT22;266;49.514;8.294;2023-05-10T00:27:33;13.80;99.90
563;DHT22;266;49.514;8.294;2023-05-10T00:30:00;13.80;99.90
563;DHT22;266;49.514;8.294;2023-05-10T00:32:28;13.80;99.90
563;DHT22;266;49.514;8.294;2023-05-10T00:34:58;13.90;99.90
563;DHT22;266;49.514;8.294;2023-05-10T00:37:26;13.80;99.90
563;DHT22;266;49.514;8.294;2023-05-10T00:39:54;13.90;99.90
563;DHT22;266;49.514;8.294;2023-05-10T00:42:22;13.80;99.90
563;DHT22;266;49.514;8.294;2023-05-10T00:44:50;13.90;99.90
563;DHT22;266;49.514;8.294;2023-05-10T00:47:18;13.80;99.90
563;DHT22;266;49.514;8.294;2023-05-10T00:49:46;13.80;99.90
563;DHT22;266;49.514;8.294;2023-05-10T00:52:15;13.70;99.90
563;DHT22;266;49.514;8.294;2023-05-10T00:54:43;13.70;99.90
563;DHT22;266;49.514;8.294;2023-05-10T00:57:12;13.60;99.90
563;DHT22;266;49.514;8.294;2023-05-10T00:59:39;13.60;99.90
563;DHT22;266;49.514;8.294;2023-05-10T01:02:07;13.60;99.90
563;DHT22;266;49.514;8.294;2023-05-10T01:04:36;13.60;99.90
563;DHT22;266;49.514;8.294;2023-05-10T01:07:06;13.70;99.90
563;DHT22;266;49.514;8.294;2023-05-10T01:09:35;13.70;99.90
563;DHT22;266;49.514;8.294;2023-05-10T01:12:04;13.60;99.90
563;DHT22;266;49.514;8.294;2023-05-10T01:14:34;13.60;99.90
563;DHT22;266;49.514;8.294;2023-05-10T01:17:04;13.70;99.90
563;DHT22;266;49.514;8.294;2023-05-10T01:19:34;13.60;99.90
563;DHT22;266;49.514;8.294;2023-05-10T01:25:31;13.60;99.90
563;DHT22;266;49.514;8.294;2023-05-10T01:28:22;13.60;99.90
563;DHT22;266;49.514;8.294;2023-05-10T01:34:16;13.60;99.90
563;DHT22;266;49.514;8.294;2023-05-10T01:36:48;13.60;99.90
563;DHT22;266;49.514;8.294;2023-05-10T01:39:22;13.60;99.90
563;DHT22;266;49.514;8.294;2023-05-10T01:41:55;13.60;99.90
563;DHT22;266;49.514;8.294;2023-05-10T01:44:31;13.60;99.90
563;DHT22;266;49.514;8.294;2023-05-10T01:47:07;13.60;99.90
563;DHT22;266;49.514;8.294;2023-05-10T01:49:43;13.60;99.90
563;DHT22;266;49.514;8.294;2023-05-10T01:52:15;13.60;99.90
563;DHT22;266;49.514;8.294;2023-05-10T01:54:51;13.60;99.90
563;DHT22;266;49.514;8.294;2023-05-10T01:57:22;13.60;99.90
563;DHT22;266;49.514;8.294;2023-05-10T01:59:53;13.60;99.90
563;DHT22;266;49.514;8.294;2023-05-10T02:02:24;13.60;99.90
563;DHT22;266;49.514;8.294;2023-05-10T02:04:55;13.60;99.90
563;DHT22;266;49.514;8.294;2023-05-10T02:07:25;13.60;99.90
563;DHT22;266;49.514;8.294;2023-05-10T02:09:55;13.60;99.90
563;DHT22;266;49.514;8.294;2023-05-10T02:12:24;13.60;99.90
563;DHT22;266;49.514;8.294;2023-05-10T02:14:54;13.50;99.90
563;DHT22;266;49.514;8.294;2023-05-10T02:17:23;13.60;99.90
563;DHT22;266;49.514;8.294;2023-05-10T02:19:55;13.60;99.90
563;DHT22;266;49.514;8.294;2023-05-10T02:22:25;13.60;99.90
563;DHT22;266;49.514;8.294;2023-05-10T02:24:55;13.60;99.90
563;DHT22;266;49.514;8.294;2023-05-10T02:27:24;13.60;99.90
563;DHT22;266;49.514;8.294;2023-05-10T02:29:54;13.60;99.90
563;DHT22;266;49.514;8.294;2023-05-10T02:32:22;13.60;99.90
563;DHT22;266;49.514;8.294;2023-05-10T02:34:52;13.60;99.90
563;DHT22;266;49.514;8.294;2023-05-10T02:37:22;13.60;99.90
563;DHT22;266;49.514;8.294;2023-05-10T02:39:53;13.60;99.90
563;DHT22;266;49.514;8.294;2023-05-10T02:42:25;13.70;99.90
563;DHT22;266;49.514;8.294;2023-05-10T02:44:59;13.80;99.90
563;DHT22;266;49.514;8.294;2023-05-10T02:47:28;13.90;99.90
563;DHT22;266;49.514;8.294;2023-05-10T02:49:56;13.80;99.90
563;DHT22;266;49.514;8.294;2023-05-10T02:52:29;13.70;99.90
563;DHT22;266;49.514;8.294;2023-05-10T02:55:01;13.70;99.90
563;DHT22;266;49.514;8.294;2023-05-10T02:57:33;13.60;99.90
563;DHT22;266;49.514;8.294;2023-05-10T03:00:03;13.60;99.90
563;DHT22;266;49.514;8.294;2023-05-10T03:02:31;13.60;99.90
563;DHT22;266;49.514;8.294;2023-05-10T03:04:59;13.60;99.90
563;DHT22;266;49.514;8.294;2023-05-10T03:07:29;13.60;99.90
563;DHT22;266;49.514;8.294;2023-05-10T03:09:57;13.60;99.90
563;DHT22;266;49.514;8.294;2023-05-10T03:12:33;13.60;99.90
563;DHT22;266;49.514;8.294;2023-05-10T03:15:13;13.60;99.90
563;DHT22;266;49.514;8.294;2023-05-10T03:17:48;13.60;99.90
563;DHT22;266;49.514;8.294;2023-05-10T03:20:23;13.70;99.90
563;DHT22;266;49.514;8.294;2023-05-10T03:22:59;13.60;99.90
563;DHT22;266;49.514;8.294;2023-05-10T03:25:29;13.60;99.90
563;DHT22;266;49.514;8.294;2023-05-10T03:28:01;13.60;99.90
563;DHT22;266;49.514;8.294;2023-05-10T03:30:31;13.50;99.90
563;DHT22;266;49.514;8.294;2023-05-10T03:33:04;13.50;99.90
563;DHT22;266;49.514;8.294;2023-05-10T03:35:32;13.50;99.90
563;DHT22;266;49.514;8.294;2023-05-10T03:38:02;13.50;99.90
563;DHT22;266;49.514;8.294;2023-05-10T03:40:30;13.50;99.90
563;DHT22;266;49.514;8.294;2023-05-10T03:42:58;13.40;99.90
563;DHT22;266;49.514;8.294;2023-05-10T03:45:26;13.40;99.90
563;DHT22;266;49.514;8.294;2023-05-10T03:47:54;13.40;99.90
563;DHT22;266;49.514;8.294;2023-05-10T03:50:23;13.40;99.90
563;DHT22;266;49.514;8.294;2023-05-10T03:52:51;13.30;99.90
563;DHT22;266;49.514;8.294;2023-05-10T03:55:22;13.30;99.90
563;DHT22;266;49.514;8.294;2023-05-10T03:57:50;13.30;99.90
563;DHT22;266;49.514;8.294;2023-05-10T04:00:18;13.20;99.90
563;DHT22;266;49.514;8.294;2023-05-10T04:02:46;13.20;99.90
563;DHT22;266;49.514;8.294;2023-05-10T04:05:14;13.20;99.90
563;DHT22;266;49.514;8.294;2023-05-10T04:07:42;13.20;99.90
563;DHT22;266;49.514;8.294;2023-05-10T04:10:11;13.30;99.90
563;DHT22;266;49.514;8.294;2023-05-10T04:12:40;13.30;99.90
563;DHT22;266;49.514;8.294;2023-05-10T04:15:09;13.30;99.90
563;DHT22;266;49.514;8.294;2023-05-10T04:17:37;13.20;99.90
563;DHT22;266;49.514;8.294;2023-05-10T04:20:06;13.10;99.90
563;DHT22;266;49.514;8.294;2023-05-10T04:22:34;13.10;99.90
563;DHT22;266;49.514;8.294;2023-05-10T04:25:03;13.10;99.90
563;DHT22;266;49.514;8.294;2023-05-10T04:27:31;13.00;99.90
563;DHT22;266;49.514;8.294;2023-05-10T04:30:01;12.90;99.90
563;DHT22;266;49.514;8.294;2023-05-10T04:32:30;12.90;99.90
563;DHT22;266;49.514;8.294;2023-05-10T04:34:58;12.80;99.90
563;DHT22;266;49.514;8.294;2023-05-10T04:37:26;12.80;99.90
563;DHT22;266;49.514;8.294;2023-05-10T04:39:54;12.80;99.90
563;DHT22;266;49.514;8.294;2023-05-10T04:42:21;12.90;99.90
563;DHT22;266;49.514;8.294;2023-05-10T04:44:49;12.90;99.90
563;DHT22;266;49.514;8.294;2023-05-10T04:47:21;13.00;99.90
563;DHT22;266;49.514;8.294;2023-05-10T04:49:49;13.10;99.90
563;DHT22;266;49.514;8.294;2023-05-10T04:52:16;13.20;99.90
563;DHT22;266;49.514;8.294;2023-05-10T04:54:45;13.30;99.90
563;DHT22;266;49.514;8.294;2023-05-10T04:57:12;13.30;99.90
563;DHT22;266;49.514;8.294;2023-05-10T04:59:40;13.30;99.90
563;DHT22;266;49.514;8.294;2023-05-10T05:02:09;13.40;99.90
563;DHT22;266;49.514;8.294;2023-05-10T05:04:38;13.50;99.90
563;DHT22;266;49.514;8.294;2023-05-10T05:07:06;13.50;99.90
563;DHT22;266;49.514;8.294;2023-05-10T05:09:34;13.60;99.90
563;DHT22;266;49.514;8.294;2023-05-10T05:12:03;13.60;99.90
563;DHT22;266;49.514;8.294;2023-05-10T05:14:31;13.70;99.90
563;DHT22;266;49.514;8.294;2023-05-10T05:16:59;13.70;99.90
563;DHT22;266;49.514;8.294;2023-05-10T05:19:27;13.90;99.90
563;DHT22;266;49.514;8.294;2023-05-10T05:21:56;14.00;99.90
563;DHT22;266;49.514;8.294;2023-05-10T05:24:24;14.00;99.90
563;DHT22;266;49.514;8.294;2023-05-10T05:26:52;14.00;99.90
563;DHT22;266;49.514;8.294;2023-05-10T05:29:20;14.00;99.90
563;DHT22;266;49.514;8.294;2023-05-10T05:31:48;13.90;99.90
563;DHT22;266;49.514;8.294;2023-05-10T05:34:16;13.90;99.90
563;DHT22;266;49.514;8.294;2023-05-10T05:36:43;13.90;99.90
563;DHT22;266;49.514;8.294;2023-05-10T05:39:13;14.00;99.90
563;DHT22;266;49.514;8.294;2023-05-10T05:41:41;14.00;99.90
563;DHT22;266;49.514;8.294;2023-05-10T05:44:10;14.00;99.90
563;DHT22;266;49.514;8.294;2023-05-10T05:46:37;14.10;99.90
563;DHT22;266;49.514;8.294;2023-05-10T05:49:06;14.10;99.90
563;DHT22;266;49.514;8.294;2023-05-10T05:51:33;14.20;99.90
563;DHT22;266;49.514;8.294;2023-05-10T05:54:03;14.30;99.90
563;DHT22;266;49.514;8.294;2023-05-10T05:56:32;14.30;99.90
563;DHT22;266;49.514;8.294;2023-05-10T05:59:01;14.50;99.90
563;DHT22;266;49.514;8.294;2023-05-10T06:01:28;14.60;99.90
563;DHT22;266;49.514;8.294;2023-05-10T06:03:56;14.80;99.90
563;DHT22;266;49.514;8.294;2023-05-10T06:06:25;14.90;99.90
563;DHT22;266;49.514;8.294;2023-05-10T06:08:53;14.90;99.90
563;DHT22;266;49.514;8.294;2023-05-10T06:11:21;14.90;99.90
563;DHT22;266;49.514;8.294;2023-05-10T06:13:51;15.00;99.90
563;DHT22;266;49.514;8.294;2023-05-10T06:16:19;15.10;99.90
563;DHT22;266;49.514;8.294;2023-05-10T06:18:46;15.20;99.90
563;DHT22;266;49.514;8.294;2023-05-10T06:21:14;15.20;99.90
563;DHT22;266;49.514;8.294;2023-05-10T06:23:42;15.20;99.90
563;DHT22;266;49.514;8.294;2023-05-10T06:26:10;15.10;99.90
563;DHT22;266;49.514;8.294;2023-05-10T06:28:38;15.20;99.90
563;DHT22;266;49.514;8.294;2023-05-10T06:31:08;15.30;99.90
563;DHT22;266;49.514;8.294;2023-05-10T06:33:38;15.30;99.90
563;DHT22;266;49.514;8.294;2023-05-10T06:36:06;15.40;99.90
563;DHT22;266;49.514;8.294;2023-05-10T06:38:34;15.50;99.90
563;DHT22;266;49.514;8.294;2023-05-10T06:41:01;15.50;99.90
563;DHT22;266;49.514;8.294;2023-05-10T06:43:32;15.50;99.90
563;DHT22;266;49.514;8.294;2023-05-10T06:46:00;15.40;99.90
563;DHT22;266;49.514;8.294;2023-05-10T06:48:29;15.40;99.90
563;DHT22;266;49.514;8.294;2023-05-10T06:50:57;15.50;99.90
563;DHT22;266;49.514;8.294;2023-05-10T06:53:25;15.40;99.90
563;DHT22;266;49.514;8.294;2023-05-10T06:55:53;15.40;99.90
563;DHT22;266;49.514;8.294;2023-05-10T06:58:21;15.50;99.90
563;DHT22;266;49.514;8.294;2023-05-10T07:00:49;15.50;99.90
563;DHT22;266;49.514;8.294;2023-05-10T07:03:17;15.50;99.90
563;DHT22;266;49.514;8.294;2023-05-10T07:05:46;15.50;99.90
563;DHT22;266;49.514;8.294;2023-05-10T07:08:14;15.50;99.90
563;DHT22;266;49.514;8.294;2023-05-10T07:10:42;15.50;99.90
563;DHT22;266;49.514;8.294;2023-05-10T07:13:10;15.60;99.90
563;DHT22;266;49.514;8.294;2023-05-10T07:15:38;15.60;99.90
563;DHT22;266;49.514;8.294;2023-05-10T07:18:06;15.70;99.90
563;DHT22;266;49.514;8.294;2023-05-10T07:20:34;15.80;99.90
563;DHT22;266;49.514;8.294;2023-05-10T07:23:04;15.90;99.90
563;DHT22;266;49.514;8.294;2023-05-10T07:25:32;16.00;99.90
563;DHT22;266;49.514;8.294;2023-05-10T07:28:00;16.00;99.90
563;DHT22;266;49.514;8.294;2023-05-10T07:30:27;16.20;99.90
563;DHT22;266;49.514;8.294;2023-05-10T07:32:56;16.20;99.90
563;DHT22;266;49.514;8.294;2023-05-10T07:35:24;16.20;99.90
563;DHT22;266;49.514;8.294;2023-05-10T07:37:52;16.20;99.90
563;DHT22;266;49.514;8.294;2023-05-10T07:40:21;16.20;99.90
563;DHT22;266;49.514;8.294;2023-05-10T07:42:49;16.20;99.90
563;DHT22;266;49.514;8.294;2023-05-10T07:45:17;16.10;99.90
563;DHT22;266;49.514;8.294;2023-05-10T07:47:45;16.10;99.90
563;DHT22;266;49.514;8.294;2023-05-10T07:50:14;16.10;99.90
563;DHT22;266;49.514;8.294;2023-05-10T07:52:45;16.10;99.90
563;DHT22;266;49.514;8.294;2023-05-10T07:55:13;16.20;99.90
563;DHT22;266;49.514;8.294;2023-05-10T07:57:43;16.40;99.90
563;DHT22;266;49.514;8.294;2023-05-10T08:00:13;16.50;99.90
563;DHT22;266;49.514;8.294;2023-05-10T08:02:44;16.70;99.90
563;DHT22;266;49.514;8.294;2023-05-10T08:05:12;17.00;99.90
563;DHT22;266;49.514;8.294;2023-05-10T08:07:41;17.20;99.90
563;DHT22;266;49.514;8.294;2023-05-10T08:10:10;17.40;99.90
563;DHT22;266;49.514;8.294;2023-05-10T08:12:38;17.50;99.90
563;DHT22;266;49.514;8.294;2023-05-10T08:15:09;17.70;99.90
563;DHT22;266;49.514;8.294;2023-05-10T08:17:37;17.70;99.90
563;DHT22;266;49.514;8.294;2023-05-10T08:20:06;17.70;99.90
563;DHT22;266;49.514;8.294;2023-05-10T08:22:36;17.60;99.90
563;DHT22;266;49.514;8.294;2023-05-10T08:25:07;17.50;99.90
563;DHT22;266;49.514;8.294;2023-05-10T08:27:35;17.30;99.90
563;DHT22;266;49.514;8.294;2023-05-10T08:30:03;17.10;99.90
563;DHT22;266;49.514;8.294;2023-05-10T08:32:33;16.90;99.90
563;DHT22;266;49.514;8.294;2023-05-10T08:35:01;16.70;99.90
563;DHT22;266;49.514;8.294;2023-05-10T08:37:31;16.60;99.90
563;DHT22;266;49.514;8.294;2023-05-10T08:39:59;16.60;99.90
563;DHT22;266;49.514;8.294;2023-05-10T08:42:30;16.60;99.90
563;DHT22;266;49.514;8.294;2023-05-10T08:45:03;16.60;99.90
563;DHT22;266;49.514;8.294;2023-05-10T08:47:34;16.60;99.90
563;DHT22;266;49.514;8.294;2023-05-10T08:50:05;16.60;99.90
563;DHT22;266;49.514;8.294;2023-05-10T08:52:37;16.80;99.90
563;DHT22;266;49.514;8.294;2023-05-10T08:55:06;17.00;99.90
563;DHT22;266;49.514;8.294;2023-05-10T08:57:35;17.30;99.90
563;DHT22;266;49.514;8.294;2023-05-10T09:00:05;17.50;99.90
563;DHT22;266;49.514;8.294;2023-05-10T09:02:35;17.60;99.90
563;DHT22;266;49.514;8.294;2023-05-10T09:05:05;17.70;99.90
563;DHT22;266;49.514;8.294;2023-05-10T09:07:33;17.70;99.90
563;DHT22;266;49.514;8.294;2023-05-10T09:10:02;17.80;99.90
563;DHT22;266;49.514;8.294;2023-05-10T09:12:30;17.90;99.90
563;DHT22;266;49.514;8.294;2023-05-10T09:14:59;17.80;99.90
563;DHT22;266;49.514;8.294;2023-05-10T09:17:29;17.70;99.90
563;DHT22;266;49.514;8.294;2023-05-10T09:19:59;17.60;99.90
563;DHT22;266;49.514;8.294;2023-05-10T09:22:28;17.50;99.90
563;DHT22;266;49.514;8.294;2023-05-10T09:25:06;17.40;99.90
563;DHT22;266;49.514;8.294;2023-05-10T09:27:35;17.30;99.90
563;DHT22;266;49.514;8.294;2023-05-10T09:30:04;17.30;99.90
563;DHT22;266;49.514;8.294;2023-05-10T09:32:37;17.20;99.90
563;DHT22;266;49.514;8.294;2023-05-10T09:35:10;17.10;99.90
563;DHT22;266;49.514;8.294;2023-05-10T09:37:39;17.00;99.90
563;DHT22;266;49.514;8.294;2023-05-10T09:40:12;17.00;99.90
563;DHT22;266;49.514;8.294;2023-05-10T09:42:41;16.90;99.90
563;DHT22;266;49.514;8.294;2023-05-10T09:45:10;16.90;99.90
563;DHT22;266;49.514;8.294;2023-05-10T09:47:38;16.90;99.90
563;DHT22;266;49.514;8.294;2023-05-10T09:50:06;16.80;99.90
563;DHT22;266;49.514;8.294;2023-05-10T09:52:48;16.80;99.90
563;DHT22;266;49.514;8.294;2023-05-10T09:55:18;16.70;99.90
563;DHT22;266;49.514;8.294;2023-05-10T09:57:46;16.50;99.90
563;DHT22;266;49.514;8.294;2023-05-10T10:00:19;16.40;99.90
563;DHT22;266;49.514;8.294;2023-05-10T10:02:48;16.20;99.90
563;DHT22;266;49.514;8.294;2023-05-10T10:05:28;16.00;99.90
563;DHT22;266;49.514;8.294;2023-05-10T10:07:58;16.00;99.90
563;DHT22;266;49.514;8.294;2023-05-10T10:10:27;16.00;99.90
563;DHT22;266;49.514;8.294;2023-05-10T10:12:55;15.90;99.90
563;DHT22;266;49.514;8.294;2023-05-10T10:15:23;15.90;99.90
563;DHT22;266;49.514;8.294;2023-05-10T10:17:52;15.90;99.90
563;DHT22;266;49.514;8.294;2023-05-10T10:20:22;16.00;99.90
563;DHT22;266;49.514;8.294;2023-05-10T10:22:50;16.10;99.90
563;DHT22;266;49.514;8.294;2023-05-10T10:25:21;16.40;99.90
563;DHT22;266;49.514;8.294;2023-05-10T10:27:58;16.80;99.90
563;DHT22;266;49.514;8.294;2023-05-10T10:30:42;17.20;99.90
563;DHT22;266;49.514;8.294;2023-05-10T10:33:28;17.70;99.90
563;DHT22;266;49.514;8.294;2023-05-10T10:36:00;18.20;99.90
563;DHT22;266;49.514;8.294;2023-05-10T10:38:36;18.60;99.90
563;DHT22;266;49.514;8.294;2023-05-10T10:41:10;18.90;99.90
563;DHT22;266;49.514;8.294;2023-05-10T10:43:38;19.20;99.90
563;DHT22;266;49.514;8.294;2023-05-10T10:46:13;19.40;99.90
563;DHT22;266;49.514;8.294;2023-05-10T10:48:48;19.60;99.90
563;DHT22;266;49.514;8.294;2023-05-10T10:51:18;19.80;99.90
563;DHT22;266;49.514;8.294;2023-05-10T10:53:47;19.80;99.90
563;DHT22;266;49.514;8.294;2023-05-10T10:56:22;19.40;99.90
563;DHT22;266;49.514;8.294;2023-05-10T10:58:51;18.90;99.90
563;DHT22;266;49.514;8.294;2023-05-10T11:01:20;18.70;99.90
563;DHT22;266;49.514;8.294;2023-05-10T11:04:18;18.50;99.90
563;DHT22;266;49.514;8.294;2023-05-10T11:06:47;18.30;99.90
563;DHT22;266;49.514;8.294;2023-05-10T11:09:15;18.30;99.90
563;DHT22;266;49.514;8.294;2023-05-10T11:11:53;18.30;99.90
563;DHT22;266;49.514;8.294;2023-05-10T11:14:22;18.20;99.90
563;DHT22;266;49.514;8.294;2023-05-10T11:16:50;18.10;99.90
563;DHT22;266;49.514;8.294;2023-05-10T11:19:19;18.10;99.90
563;DHT22;266;49.514;8.294;2023-05-10T11:21:48;18.00;99.90
563;DHT22;266;49.514;8.294;2023-05-10T11:24:17;18.10;99.90
563;DHT22;266;49.514;8.294;2023-05-10T11:26:47;18.20;99.90
563;DHT22;266;49.514;8.294;2023-05-10T11:29:18;18.40;99.90
563;DHT22;266;49.514;8.294;2023-05-10T11:31:47;18.50;99.90
563;DHT22;266;49.514;8.294;2023-05-10T11:34:26;18.80;99.90
563;DHT22;266;49.514;8.294;2023-05-10T11:36:55;19.00;99.90
563;DHT22;266;49.514;8.294;2023-05-10T11:39:26;19.20;99.90
563;DHT22;266;49.514;8.294;2023-05-10T11:41:55;19.40;99.90
563;DHT22;266;49.514;8.294;2023-05-10T11:44:29;19.40;99.90
563;DHT22;266;49.514;8.294;2023-05-10T11:46:58;19.40;99.90
563;DHT22;266;49.514;8.294;2023-05-10T11:49:26;19.40;99.90
563;DHT22;266;49.514;8.294;2023-05-10T11:52:03;19.40;99.90
563;DHT22;266;49.514;8.294;2023-05-10T11:54:31;19.50;99.90
563;DHT22;266;49.514;8.294;2023-05-10T11:57:01;19.20;99.90
563;DHT22;266;49.514;8.294;2023-05-10T11:59:30;19.10;99.90
563;DHT22;266;49.514;8.294;2023-05-10T12:01:58;18.90;99.90
563;DHT22;266;49.514;8.294;2023-05-10T12:04:26;18.90;99.90
563;DHT22;266;49.514;8.294;2023-05-10T12:06:56;18.90;99.90
563;DHT22;266;49.514;8.294;2023-05-10T12:09:24;18.80;99.90
563;DHT22;266;49.514;8.294;2023-05-10T12:12:10;18.80;99.90
563;DHT22;266;49.514;8.294;2023-05-10T12:14:39;18.70;99.90
563;DHT22;266;49.514;8.294;2023-05-10T12:17:11;18.70;99.90
563;DHT22;266;49.514;8.294;2023-05-10T12:19:41;18.60;99.90
563;DHT22;266;49.514;8.294;2023-05-10T12:22:10;18.60;99.90
563;DHT22;266;49.514;8.294;2023-05-10T12:24:38;18.60;99.90
563;DHT22;266;49.514;8.294;2023-05-10T12:27:08;18.50;99.90
563;DHT22;266;49.514;8.294;2023-05-10T12:29:36;18.30;99.90
563;DHT22;266;49.514;8.294;2023-05-10T12:32:09;18.10;99.90
563;DHT22;266;49.514;8.294;2023-05-10T12:34:38;18.10;99.90
563;DHT22;266;49.514;8.294;2023-05-10T12:37:06;18.10;99.90
563;DHT22;266;49.514;8.294;2023-05-10T12:39:39;18.10;99.90
563;DHT22;266;49.514;8.294;2023-05-10T12:42:07;18.10;99.90
563;DHT22;266;49.514;8.294;2023-05-10T12:44:35;18.10;99.90
563;DHT22;266;49.514;8.294;2023-05-10T12:47:03;18.10;99.90
563;DHT22;266;49.514;8.294;2023-05-10T12:49:33;18.10;99.90
563;DHT22;266;49.514;8.294;2023-05-10T12:52:02;18.10;99.90
563;DHT22;266;49.514;8.294;2023-05-10T12:54:30;18.10;99.90
563;DHT22;266;49.514;8.294;2023-05-10T12:56:58;18.30;99.90
563;DHT22;266;49.514;8.294;2023-05-10T12:59:26;18.40;99.90
563;DHT22;266;49.514;8.294;2023-05-10T13:01:54;18.60;99.90
563;DHT22;266;49.514;8.294;2023-05-10T13:04:22;18.70;99.90
563;DHT22;266;49.514;8.294;2023-05-10T13:06:51;18.80;99.90
563;DHT22;266;49.514;8.294;2023-05-10T13:09:19;19.00;99.90
563;DHT22;266;49.514;8.294;2023-05-10T13:11:48;19.20;99.90
563;DHT22;266;49.514;8.294;2023-05-10T13:14:16;19.30;99.90
563;DHT22;266;49.514;8.294;2023-05-10T13:16:45;19.30;99.90
563;DHT22;266;49.514;8.294;2023-05-10T13:19:14;19.40;99.90
563;DHT22;266;49.514;8.294;2023-05-10T13:21:42;19.50;99.90
563;DHT22;266;49.514;8.294;2023-05-10T13:24:12;19.80;99.90
563;DHT22;266;49.514;8.294;2023-05-10T13:26:41;20.00;99.90
563;DHT22;266;49.514;8.294;2023-05-10T13:29:09;20.20;99.90
563;DHT22;266;49.514;8.294;2023-05-10T13:31:36;20.20;99.90
563;DHT22;266;49.514;8.294;2023-05-10T13:34:05;20.30;99.90
563;DHT22;266;49.514;8.294;2023-05-10T13:36:33;20.40;99.90
563;DHT22;266;49.514;8.294;2023-05-10T13:39:01;20.50;99.90
563;DHT22;266;49.514;8.294;2023-05-10T13:41:31;20.40;99.90
563;DHT22;266;49.514;8.294;2023-05-10T13:43:59;20.40;99.90
563;DHT22;266;49.514;8.294;2023-05-10T13:46:27;20.10;99.90
563;DHT22;266;49.514;8.294;2023-05-10T13:48:55;19.90;99.90
563;DHT22;266;49.514;8.294;2023-05-10T13:51:23;19.70;99.90
563;DHT22;266;49.514;8.294;2023-05-10T13:53:51;19.60;99.90
563;DHT22;266;49.514;8.294;2023-05-10T13:56:19;19.60;99.90
563;DHT22;266;49.514;8.294;2023-05-10T13:58:48;19.80;99.90
563;DHT22;266;49.514;8.294;2023-05-10T14:01:16;19.80;99.90
563;DHT22;266;49.514;8.294;2023-05-10T14:03:44;19.60;99.90
563;DHT22;266;49.514;8.294;2023-05-10T14:06:12;19.50;99.90
563;DHT22;266;49.514;8.294;2023-05-10T14:08:40;19.50;99.90
563;DHT22;266;49.514;8.294;2023-05-10T14:11:08;19.60;99.90
563;DHT22;266;49.514;8.294;2023-05-10T14:13:35;19.80;99.90
563;DHT22;266;49.514;8.294;2023-05-10T14:16:05;20.00;99.90
563;DHT22;266;49.514;8.294;2023-05-10T14:18:33;20.10;99.90
563;DHT22;266;49.514;8.294;2023-05-10T14:21:02;20.10;99.90
563;DHT22;266;49.514;8.294;2023-05-10T14:23:30;20.10;99.90
563;DHT22;266;49.514;8.294;2023-05-10T14:25:58;20.30;99.90
563;DHT22;266;49.514;8.294;2023-05-10T14:28:26;20.30;99.90
563;DHT22;266;49.514;8.294;2023-05-10T14:30:54;20.40;99.90
563;DHT22;266;49.514;8.294;2023-05-10T14:33:23;20.30;99.90
563;DHT22;266;49.514;8.294;2023-05-10T14:35:51;20.30;99.90
563;DHT22;266;49.514;8.294;2023-05-10T14:38:19;20.00;99.90
563;DHT22;266;49.514;8.294;2023-05-10T14:40:47;19.90;99.90
563;DHT22;266;49.514;8.294;2023-05-10T14:43:15;19.90;99.90
563;DHT22;266;49.514;8.294;2023-05-10T14:45:43;20.10;99.90
563;DHT22;266;49.514;8.294;2023-05-10T14:48:11;20.20;99.90
563;DHT22;266;49.514;8.294;2023-05-10T14:50:43;20.10;99.90
563;DHT22;266;49.514;8.294;2023-05-10T14:53:11;20.20;99.90
563;DHT22;266;49.514;8.294;2023-05-10T14:55:39;20.40;99.90
563;DHT22;266;49.514;8.294;2023-05-10T14:58:07;20.70;99.90
563;DHT22;266;49.514;8.294;2023-05-10T15:00:35;20.80;99.90
563;DHT22;266;49.514;8.294;2023-05-10T15:03:03;20.90;99.90
563;DHT22;266;49.514;8.294;2023-05-10T15:05:31;21.10;99.90
563;DHT22;266;49.514;8.294;2023-05-10T15:08:01;21.20;99.90
563;DHT22;266;49.514;8.294;2023-05-10T15:10:29;21.50;99.90
563;DHT22;266;49.514;8.294;2023-05-10T15:13:00;21.90;99.90
563;DHT22;266;49.514;8.294;2023-05-10T15:15:28;22.10;99.90
563;DHT22;266;49.514;8.294;2023-05-10T15:17:56;22.60;99.90
563;DHT22;266;49.514;8.294;2023-05-10T15:20:24;22.90;99.90
563;DHT22;266;49.514;8.294;2023-05-10T15:22:52;23.20;99.90
563;DHT22;266;49.514;8.294;2023-05-10T15:25:21;23.40;99.90
563;DHT22;266;49.514;8.294;2023-05-10T15:27:50;23.30;99.90
563;DHT22;266;49.514;8.294;2023-05-10T15:30:18;23.00;99.90
563;DHT22;266;49.514;8.294;2023-05-10T15:32:46;23.00;99.90
563;DHT22;266;49.514;8.294;2023-05-10T15:35:16;22.80;99.90
563;DHT22;266;49.514;8.294;2023-05-10T15:37:46;22.40;99.90
563;DHT22;266;49.514;8.294;2023-05-10T15:40:14;22.20;99.90
563;DHT22;266;49.514;8.294;2023-05-10T15:42:44;22.30;99.90
563;DHT22;266;49.514;8.294;2023-05-10T15:45:12;22.10;99.90
563;DHT22;266;49.514;8.294;2023-05-10T15:47:40;21.90;99.90
563;DHT22;266;49.514;8.294;2023-05-10T15:50:09;21.80;99.90
563;DHT22;266;49.514;8.294;2023-05-10T15:52:37;21.70;99.90
563;DHT22;266;49.514;8.294;2023-05-10T15:55:06;21.50;99.90
563;DHT22;266;49.514;8.294;2023-05-10T15:57:38;21.30;99.90
563;DHT22;266;49.514;8.294;2023-05-10T16:00:10;21.20;99.90
563;DHT22;266;49.514;8.294;2023-05-10T16:02:38;21.00;99.90
563;DHT22;266;49.514;8.294;2023-05-10T16:05:07;20.80;99.90
563;DHT22;266;49.514;8.294;2023-05-10T16:07:35;20.60;99.90
563;DHT22;266;49.514;8.294;2023-05-10T16:10:04;20.40;99.90
563;DHT22;266;49.514;8.294;2023-05-10T16:12:32;20.20;99.90
563;DHT22;266;49.514;8.294;2023-05-10T16:15:01;20.10;99.90
563;DHT22;266;49.514;8.294;2023-05-10T16:17:30;20.10;99.90
563;DHT22;266;49.514;8.294;2023-05-10T16:19:58;20.00;99.90
563;DHT22;266;49.514;8.294;2023-05-10T16:22:26;19.90;99.90
563;DHT22;266;49.514;8.294;2023-05-10T16:24:55;19.90;99.90
563;DHT22;266;49.514;8.294;2023-05-10T16:27:24;19.80;99.90
563;DHT22;266;49.514;8.294;2023-05-10T16:29:54;19.70;99.90
563;DHT22;266;49.514;8.294;2023-05-10T16:32:22;19.60;99.90
563;DHT22;266;49.514;8.294;2023-05-10T16:34:51;19.60;99.90
563;DHT22;266;49.514;8.294;2023-05-10T16:37:19;19.50;99.90
563;DHT22;266;49.514;8.294;2023-05-10T16:39:47;19.50;99.90
563;DHT22;266;49.514;8.294;2023-05-10T16:42:15;19.60;99.90
563;DHT22;266;49.514;8.294;2023-05-10T16:44:43;19.70;99.90
563;DHT22;266;49.514;8.294;2023-05-10T16:47:11;19.70;99.90
563;DHT22;266;49.514;8.294;2023-05-10T16:49:39;19.70;99.90
563;DHT22;266;49.514;8.294;2023-05-10T16:52:09;19.60;99.90
563;DHT22;266;49.514;8.294;2023-05-10T16:54:37;19.50;99.90